Absecon City, New Jersey
Current Conditions -  °F | °C
As of 10:54 PM on Friday 19 Dec 2014 (Local Time) from KACY Reporting Station
Clear Clear  
Wind Chill: -7°   Ceiling: Unl
Heat Index: -3°   Visibility: 10mi
Dew Point: -7°   Wind: 6mph
Humidity: 78%   Direction: 310°NW
Pressure: 30.21"   Gusts: NA
Location:  39.4315°N, 74.5003°W
Report Text: KACY 200354Z 31005KT 10SM CLR M03/M07 A3021 RMK AO2 SLP229 T10331067
Loading
Personal Weather Stations






























Interactive Weather Map New forecast layout! Learn more

10-Day Weather Forecast

Advertisements
Track Severe Weather on mobile